Time;durP1;ratioP1;P1;durP2;ratioP2;P2;SDS_P1;SDS_P2;PMS_P1;PMS_P2;Temp;Humidity;BMP_temperature;BMP_pressure;BME280_temperature;BME280_humidity;BME280_pressure;Samples;Min_cycle;Max_cycle;Signal;HPM_P1;HPM_P2
2022/01/01 00:00:03;;;;;;;83.47;55.90;;;;;;;-144.47;100.00;61586.06;5026898;28;20120;-84
2022/01/01 00:02:38;;;;;;;85.97;57.15;;;;;;;-144.47;100.00;61586.06;5009257;28;20107;-86
2022/01/01 00:05:05;;;;;;;96.55;61.13;;;;;;;-144.47;100.00;61586.06;5014758;28;20061;-87
2022/01/01 00:07:31;;;;;;;86.57;57.20;;;;;;;-144.47;100.00;61586.06;5003841;28;20456;-84
2022/01/01 00:09:56;;;;;;;82.45;56.35;;;;;;;-144.47;100.00;61586.06;5023920;28;20061;-86
2022/01/01 00:12:22;;;;;;;80.80;49.70;;;;;;;-144.47;100.00;61586.06;5023337;28;20076;-86
2022/01/01 00:14:48;;;;;;;85.78;45.88;;;;;;;-144.47;100.00;61586.06;5022311;28;20474;-86
2022/01/01 00:17:14;;;;;;;69.55;48.78;;;;;;;-144.47;100.00;61586.06;5023484;28;20061;-86
2022/01/01 00:19:39;;;;;;;73.43;50.20;;;;;;;-144.47;100.00;61586.06;5003729;28;20034;-86
2022/01/01 00:22:07;;;;;;;67.95;49.50;;;;;;;-144.47;100.00;61586.06;5003817;28;20050;-85
2022/01/01 00:24:33;;;;;;;74.68;50.97;;;;;;;-144.47;100.00;61586.06;5035773;28;20032;-86
2022/01/01 00:26:59;;;;;;;84.25;50.33;;;;;;;-144.47;100.00;61586.06;5032270;28;20522;-86
2022/01/01 00:29:24;;;;;;;66.57;45.83;;;;;;;-144.47;100.00;61586.06;5031344;28;20056;-86
2022/01/01 00:31:50;;;;;;;70.18;48.25;;;;;;;-144.47;100.00;61586.06;5032059;28;20040;-86
2022/01/01 00:34:15;;;;;;;69.72;49.92;;;;;;;-144.47;100.00;61586.06;5015089;28;20155;-86
2022/01/01 00:36:41;;;;;;;70.80;50.17;;;;;;;-144.47;100.00;61586.06;5032827;28;20026;-86
2022/01/01 00:39:06;;;;;;;71.55;49.83;;;;;;;-144.47;100.00;61586.06;5037647;28;20029;-86
2022/01/01 00:41:32;;;;;;;72.47;50.25;;;;;;;-144.47;100.00;61586.06;5029588;28;20060;-85
2022/01/01 00:43:58;;;;;;;73.35;50.13;;;;;;;-144.47;100.00;61586.06;5051390;28;20036;-86
2022/01/01 00:46:23;;;;;;;78.05;51.17;;;;;;;-144.47;100.00;61586.06;5056208;28;20041;-86
2022/01/01 00:48:53;;;;;;;72.63;51.00;;;;;;;-144.47;100.00;61586.06;5056100;28;20047;-86
2022/01/01 00:51:20;;;;;;;76.20;51.63;;;;;;;-144.47;100.00;61586.06;5048611;28;20044;-86
2022/01/01 00:53:46;;;;;;;76.68;53.33;;;;;;;-144.47;100.00;61586.06;5054248;28;20109;-86
2022/01/01 00:56:11;;;;;;;73.93;51.83;;;;;;;-144.47;100.00;61586.06;5052243;28;20131;-86
2022/01/01 00:58:37;;;;;;;70.68;50.30;;;;;;;-144.47;100.00;61586.06;5038122;28;20036;-85
2022/01/01 01:01:04;;;;;;;77.30;51.97;;;;;;;-144.47;100.00;61586.06;5054585;28;20041;-84
2022/01/01 01:03:30;;;;;;;75.53;52.05;;;;;;;-144.47;100.00;61586.06;5032739;28;20036;-84
2022/01/01 01:05:58;;;;;;;78.47;53.40;;;;;;;-144.47;100.00;61586.06;5037927;28;20021;-86
2022/01/01 01:08:24;;;;;;;81.95;52.08;;;;;;;-144.47;100.00;61586.06;5016959;28;20033;-85
2022/01/01 01:10:49;;;;;;;78.88;52.60;;;;;;;-144.47;100.00;61586.06;5032187;28;20095;-86
2022/01/01 01:13:16;;;;;;;72.55;50.30;;;;;;;-144.47;100.00;61586.06;5031902;28;20037;-85
2022/01/01 01:15:42;;;;;;;68.47;48.92;;;;;;;-144.47;100.00;61586.06;5032281;28;20041;-86
2022/01/01 01:18:08;;;;;;;77.03;51.42;;;;;;;-144.47;100.00;61586.06;5014141;28;20846;-85
2022/01/01 01:20:33;;;;;;;69.45;49.28;;;;;;;-144.47;100.00;61586.06;5031533;28;20116;-86
2022/01/01 01:22:59;;;;;;;67.60;48.47;;;;;;;-144.47;100.00;61586.06;5031456;28;20041;-86
2022/01/01 01:25:29;;;;;;;72.38;51.55;;;;;;;-144.47;100.00;61586.06;5021721;28;20405;-86
2022/01/01 01:27:55;;;;;;;75.70;52.28;;;;;;;-144.47;100.00;61586.06;5013679;28;20037;-87
2022/01/01 01:30:22;;;;;;;72.25;49.90;;;;;;;-144.47;100.00;61586.06;5031405;28;20030;-85
2022/01/01 01:32:48;;;;;;;79.65;50.72;;;;;;;-144.47;100.00;61586.06;5033357;28;20139;-87
2022/01/01 01:35:15;;;;;;;74.55;49.95;;;;;;;-144.47;100.00;61586.06;5031192;28;20053;-87
2022/01/01 01:37:41;;;;;;;73.45;50.80;;;;;;;-144.47;100.00;61586.06;5013890;28;20061;-86
2022/01/01 01:40:07;;;;;;;79.22;50.15;;;;;;;-144.47;100.00;61586.06;5029567;28;20133;-86
2022/01/01 01:42:34;;;;;;;80.03;51.95;;;;;;;-144.47;100.00;61586.06;5031747;28;20040;-87
2022/01/01 01:45:02;;;;;;;74.35;51.78;;;;;;;-144.47;100.00;61586.06;5031102;28;20029;-86
2022/01/01 01:47:30;;;;;;;79.88;50.70;;;;;;;-144.47;100.00;61586.06;5014091;28;20034;-87
2022/01/01 01:50:00;;;;;;;74.30;51.20;;;;;;;-144.47;100.00;61586.06;5031584;28;20037;-86
2022/01/01 01:52:35;;;;;;;82.72;55.95;;;;;;;-144.47;100.00;61586.06;5029599;28;20120;-86
2022/01/01 01:55:04;;;;;;;81.70;52.55;;;;;;;-144.47;100.00;61586.06;5020589;28;20041;-86
2022/01/01 01:57:30;;;;;;;75.22;51.20;;;;;;;-144.47;100.00;61586.06;5002769;28;20048;-85
2022/01/01 01:59:56;;;;;;;75.85;51.55;;;;;;;-144.47;100.00;61586.06;5029951;28;20034;-85
2022/01/01 02:02:21;;;;;;;74.30;50.60;;;;;;;-144.47;100.00;61586.06;5031921;28;20037;-86
2022/01/01 02:04:47;;;;;;;80.32;51.38;;;;;;;-144.47;100.00;61586.06;5031982;28;20032;-85
2022/01/01 02:07:13;;;;;;;75.72;51.30;;;;;;;-144.47;100.00;61586.06;5035854;28;20048;-85
2022/01/01 02:09:39;;;;;;;79.25;50.45;;;;;;;-144.47;100.00;61586.06;5036151;28;20030;-85
2022/01/01 02:12:09;;;;;;;75.28;49.10;;;;;;;-144.47;100.00;61586.06;5035671;28;20072;-84
2022/01/01 02:17:22;;;;;;;77.80;46.58;;;;;;;-144.47;100.00;61586.06;5035666;28;20026;-85
2022/01/01 02:20:00;;;;;;;69.68;48.28;;;;;;;-144.47;100.00;61586.06;5017101;28;20076;-85
2022/01/01 02:22:34;;;;;;;73.65;48.00;;;;;;;-144.47;100.00;61586.06;5035137;28;20045;-86
2022/01/01 02:24:59;;;;;;;79.85;50.92;;;;;;;-144.47;100.00;61586.06;5034798;28;20112;-86
2022/01/01 02:27:25;;;;;;;75.40;50.35;;;;;;;-144.47;100.00;61586.06;5035371;28;20504;-86
2022/01/01 02:29:50;;;;;;;78.38;50.15;;;;;;;-144.47;100.00;61586.06;5034850;28;20788;-85
2022/01/01 02:32:16;;;;;;;84.75;49.63;;;;;;;-144.47;100.00;61586.06;5017326;28;20039;-85
2022/01/01 02:34:42;;;;;;;89.65;49.78;;;;;;;-144.47;100.00;61586.06;5034976;28;20485;-85
2022/01/01 02:37:09;;;;;;;93.05;50.25;;;;;;;-144.47;100.00;61586.06;5034906;28;20037;-86
2022/01/01 02:39:35;;;;;;;96.90;52.15;;;;;;;-144.47;100.00;61586.06;5025402;28;20418;-84
2022/01/01 02:42:00;;;;;;;91.20;54.33;;;;;;;-144.47;100.00;61586.06;5030646;28;20075;-85
2022/01/01 02:44:27;;;;;;;82.40;51.78;;;;;;;-144.47;100.00;61586.06;5035066;28;20113;-84
2022/01/01 02:46:55;;;;;;;99.05;56.30;;;;;;;-144.47;100.00;61586.06;5035757;28;20030;-85
2022/01/01 02:49:20;;;;;;;100.70;56.80;;;;;;;-144.47;100.00;61586.06;5049237;28;20039;-84
2022/01/01 02:51:46;;;;;;;102.15;57.22;;;;;;;-144.47;100.00;61586.06;5050984;28;20017;-85
2022/01/01 02:54:11;;;;;;;112.30;58.05;;;;;;;-144.47;100.00;61586.06;5035493;28;20030;-84
2022/01/01 02:56:37;;;;;;;118.43;57.67;;;;;;;-144.47;100.00;61586.06;5046573;28;20048;-86
2022/01/01 02:59:03;;;;;;;98.68;59.88;;;;;;;-144.47;100.00;61586.06;5048965;28;20101;-85
2022/01/01 03:01:28;;;;;;;110.15;61.70;;;;;;;-144.47;100.00;61586.06;5018225;28;20036;-85
2022/01/01 03:03:54;;;;;;;118.03;57.67;;;;;;;-144.47;100.00;61586.06;5034760;28;20055;-85
2022/01/01 03:06:20;;;;;;;105.95;58.72;;;;;;;-144.47;100.00;61586.06;5016857;28;20136;-85
2022/01/01 03:08:55;;;;;;;107.60;56.88;;;;;;;-144.47;100.00;61586.06;5034459;28;20038;-85
2022/01/01 03:11:21;;;;;;;97.50;58.85;;;;;;;-144.47;100.00;61586.06;5034183;28;20041;-85
2022/01/01 03:13:47;;;;;;;129.98;58.90;;;;;;;-144.47;100.00;61586.06;5016215;28;20427;-85
2022/01/01 03:16:12;;;;;;;116.32;56.20;;;;;;;-144.47;100.00;61586.06;5015928;28;20367;-85
2022/01/01 03:18:39;;;;;;;124.13;55.38;;;;;;;-144.47;100.00;61586.06;5034166;28;20160;-85
2022/01/01 03:21:05;;;;;;;91.10;53.08;;;;;;;-144.47;100.00;61586.06;5033746;28;20041;-85
2022/01/01 03:23:31;;;;;;;73.63;50.97;;;;;;;-144.47;100.00;61586.06;5029996;28;20026;-84
2022/01/01 03:25:57;;;;;;;85.75;53.35;;;;;;;-144.47;100.00;61586.06;5033059;28;20036;-84
2022/01/01 03:28:23;;;;;;;81.75;52.50;;;;;;;-144.47;100.00;61586.06;5016072;28;20105;-83
2022/01/01 03:30:48;;;;;;;87.55;53.47;;;;;;;-144.47;100.00;61586.06;5020274;28;20478;-84
2022/01/01 03:33:14;;;;;;;80.93;53.38;;;;;;;-144.47;100.00;61586.06;5023556;28;20447;-85
2022/01/01 03:35:39;;;;;;;84.57;51.83;;;;;;;-144.47;100.00;61586.06;5025678;28;20470;-87
2022/01/01 03:38:05;;;;;;;91.82;49.35;;;;;;;-144.47;100.00;61586.06;5022856;28;20811;-84
2022/01/01 03:40:30;;;;;;;88.68;49.97;;;;;;;-144.47;100.00;61586.06;5033496;28;20057;-85
2022/01/01 03:42:56;;;;;;;106.13;50.50;;;;;;;-144.47;100.00;61586.06;5023067;28;20030;-86
2022/01/01 03:45:21;;;;;;;75.38;49.65;;;;;;;-144.47;100.00;61586.06;5007076;28;20085;-87
2022/01/01 03:47:47;;;;;;;88.90;51.13;;;;;;;-144.47;100.00;61586.06;5006527;28;20033;-86
2022/01/01 03:50:13;;;;;;;79.70;50.53;;;;;;;-144.47;100.00;61586.06;5005855;28;20096;-86
2022/01/01 03:52:45;;;;;;;88.35;48.40;;;;;;;-144.47;100.00;61586.06;5025688;28;20053;-85
2022/01/01 03:55:13;;;;;;;88.72;44.95;;;;;;;-144.47;100.00;61586.06;5024012;28;20423;-86
2022/01/01 03:57:39;;;;;;;88.65;45.05;;;;;;;-144.47;100.00;61586.06;5027550;28;20049;-85
2022/01/01 04:00:09;;;;;;;76.93;48.05;;;;;;;-144.47;100.00;61586.06;5034095;28;20037;-86
2022/01/01 04:02:39;;;;;;;85.68;47.85;;;;;;;-144.47;100.00;61586.06;5027482;28;20099;-86
2022/01/01 04:05:05;;;;;;;144.70;49.55;;;;;;;-144.47;100.00;61586.06;5022819;28;20042;-87
2022/01/01 04:07:31;;;;;;;81.82;48.13;;;;;;;-144.47;100.00;61586.06;5005031;28;20040;-86
2022/01/01 04:09:57;;;;;;;91.25;48.85;;;;;;;-144.47;100.00;61586.06;5023124;28;20037;-86
2022/01/01 04:12:24;;;;;;;129.77;52.22;;;;;;;-144.47;100.00;61586.06;5026866;28;20045;-86
2022/01/01 04:14:51;;;;;;;100.57;50.58;;;;;;;-144.47;100.00;61586.06;5024342;28;20026;-86
2022/01/01 04:17:17;;;;;;;84.05;50.70;;;;;;;-144.47;100.00;61586.06;5024776;28;20135;-86
2022/01/01 04:19:42;;;;;;;93.75;49.90;;;;;;;-144.47;100.00;61586.06;5029312;28;20033;-86
2022/01/01 04:22:13;;;;;;;139.32;53.63;;;;;;;-144.47;100.00;61586.06;5026344;28;20044;-85
2022/01/01 04:24:40;;;;;;;108.25;55.33;;;;;;;-144.47;100.00;61586.06;5033003;28;20440;-86
2022/01/01 04:27:06;;;;;;;99.15;56.38;;;;;;;-144.47;100.00;61586.06;5034774;28;20053;-86
2022/01/01 04:29:33;;;;;;;124.38;56.15;;;;;;;-144.47;100.00;61586.06;5025555;28;20033;-86
2022/01/01 04:31:59;;;;;;;125.18;57.10;;;;;;;-144.47;100.00;61586.06;5015925;28;20504;-86
2022/01/01 04:34:26;;;;;;;125.03;61.42;;;;;;;-144.47;100.00;61586.06;5034173;28;20115;-85
2022/01/01 04:37:04;;;;;;;111.45;62.28;;;;;;;-144.47;100.00;61586.06;5033635;28;20030;-86
2022/01/01 04:39:30;;;;;;;138.98;57.67;;;;;;;-144.47;100.00;61586.06;5016859;28;20072;-86
2022/01/01 04:41:55;;;;;;;137.50;57.20;;;;;;;-144.47;100.00;61586.06;5033800;28;20072;-86
2022/01/01 04:44:21;;;;;;;145.15;58.60;;;;;;;-144.47;100.00;61586.06;5033747;28;20040;-86
2022/01/01 04:46:46;;;;;;;108.57;55.88;;;;;;;-144.47;100.00;61586.06;5033889;28;20059;-84
2022/01/01 04:49:12;;;;;;;133.55;53.20;;;;;;;-144.47;100.00;61586.06;5034440;28;20434;-85
2022/01/01 04:51:37;;;;;;;183.45;56.58;;;;;;;-144.47;100.00;61586.06;5034185;28;20131;-86
2022/01/01 04:54:07;;;;;;;136.07;54.67;;;;;;;-144.47;100.00;61586.06;5032999;28;20068;-86
2022/01/01 04:56:34;;;;;;;97.47;56.22;;;;;;;-144.47;100.00;61586.06;5029546;28;20048;-86
2022/01/01 04:59:02;;;;;;;95.80;54.92;;;;;;;-144.47;100.00;61586.06;5044547;28;20040;-86
2022/01/01 05:01:28;;;;;;;92.45;55.33;;;;;;;-144.47;100.00;61586.06;5054286;28;20034;-85
2022/01/01 05:03:55;;;;;;;101.55;55.75;;;;;;;-144.47;100.00;61586.06;5053381;28;20053;-85
2022/01/01 05:06:20;;;;;;;84.03;51.00;;;;;;;-144.47;100.00;61586.06;5056159;28;20005;-85
2022/01/01 05:08:46;;;;;;;80.00;47.78;;;;;;;-144.47;100.00;61586.06;5035405;28;20092;-85
2022/01/01 05:11:11;;;;;;;88.30;47.75;;;;;;;-144.47;100.00;61586.06;5043119;28;20049;-85
2022/01/01 05:13:37;;;;;;;83.45;48.22;;;;;;;-144.47;100.00;61586.06;5043585;28;20044;-86
2022/01/01 05:16:02;;;;;;;74.72;48.25;;;;;;;-144.47;100.00;61586.06;5034305;28;20029;-86
2022/01/01 05:18:28;;;;;;;69.50;47.60;;;;;;;-144.47;100.00;61586.06;5032699;28;20034;-85
2022/01/01 05:20:54;;;;;;;79.90;47.20;;;;;;;-144.47;100.00;61586.06;5014647;28;20030;-86
2022/01/01 05:23:19;;;;;;;68.25;47.90;;;;;;;-144.47;100.00;61586.06;5014516;28;20029;-85
2022/01/01 05:25:44;;;;;;;81.55;49.13;;;;;;;-144.47;100.00;61586.06;5032249;28;20094;-85
2022/01/01 05:28:10;;;;;;;81.10;49.17;;;;;;;-144.47;100.00;61586.06;5032025;28;20037;-84
2022/01/01 05:30:35;;;;;;;101.13;50.40;;;;;;;-144.47;100.00;61586.06;5036268;28;20386;-85
2022/01/01 05:33:02;;;;;;;82.18;48.67;;;;;;;-144.47;100.00;61586.06;5032043;28;20053;-84
2022/01/01 05:35:28;;;;;;;77.53;48.50;;;;;;;-144.47;100.00;61586.06;5031685;28;20037;-85
2022/01/01 05:37:53;;;;;;;78.50;49.92;;;;;;;-144.47;100.00;61586.06;5031000;28;20371;-84
2022/01/01 05:40:19;;;;;;;74.25;49.55;;;;;;;-144.47;100.00;61586.06;5031039;28;20040;-85
2022/01/01 05:42:45;;;;;;;78.60;50.40;;;;;;;-144.47;100.00;61586.06;5032092;28;20052;-85
2022/01/01 05:45:11;;;;;;;78.05;49.30;;;;;;;-144.47;100.00;61586.06;5031493;28;20026;-85
2022/01/01 05:47:37;;;;;;;72.80;48.42;;;;;;;-144.47;100.00;61586.06;5033629;28;20095;-86
2022/01/01 05:50:03;;;;;;;75.47;47.13;;;;;;;-144.47;100.00;61586.06;5031992;28;20038;-86
2022/01/01 05:52:29;;;;;;;71.20;44.35;;;;;;;-144.47;100.00;61586.06;5032037;28;20083;-84
2022/01/01 05:54:55;;;;;;;87.70;46.35;;;;;;;-144.47;100.00;61586.06;5014001;28;20033;-85
2022/01/01 05:57:20;;;;;;;73.50;47.03;;;;;;;-144.47;100.00;61586.06;5032059;28;20037;-85
2022/01/01 05:59:45;;;;;;;89.05;47.20;;;;;;;-144.47;100.00;61586.06;5032546;28;20052;-86
2022/01/01 06:02:11;;;;;;;78.88;46.97;;;;;;;-144.47;100.00;61586.06;5031830;28;20041;-85
2022/01/01 06:04:36;;;;;;;92.53;49.35;;;;;;;-144.47;100.00;61586.06;5032177;28;20116;-85
2022/01/01 06:07:03;;;;;;;71.20;48.63;;;;;;;-144.47;100.00;61586.06;5014223;28;20033;-84
2022/01/01 06:09:28;;;;;;;77.72;50.72;;;;;;;-144.47;100.00;61586.06;5031201;28;20454;-85
2022/01/01 06:11:54;;;;;;;76.22;50.63;;;;;;;-144.47;100.00;61586.06;5033424;28;20063;-85
2022/01/01 06:14:21;;;;;;;72.97;49.50;;;;;;;-144.47;100.00;61586.06;5030986;28;20151;-85
2022/01/01 06:16:47;;;;;;;77.07;50.00;;;;;;;-144.47;100.00;61586.06;5015160;28;20033;-85
2022/01/01 06:19:13;;;;;;;82.57;48.50;;;;;;;-144.47;100.00;61586.06;5014171;28;20494;-84
2022/01/01 06:21:39;;;;;;;72.88;48.17;;;;;;;-144.47;100.00;61586.06;5031240;28;20033;-86
2022/01/01 06:24:06;;;;;;;72.18;47.22;;;;;;;-144.47;100.00;61586.06;5031665;28;20040;-85
2022/01/01 06:26:31;;;;;;;65.85;47.30;;;;;;;-144.47;100.00;61586.06;5002217;28;20030;-86
2022/01/01 06:28:57;;;;;;;86.55;44.80;;;;;;;-144.47;100.00;61586.06;5034634;28;20092;-85
2022/01/01 06:31:22;;;;;;;72.85;44.53;;;;;;;-144.47;100.00;61586.06;5022456;28;20476;-86
2022/01/01 06:33:48;;;;;;;62.17;43.45;;;;;;;-144.47;100.00;61586.06;5003701;28;20426;-85
2022/01/01 06:36:13;;;;;;;63.55;44.40;;;;;;;-144.47;100.00;61586.06;5020397;28;20033;-84
2022/01/01 06:38:41;;;;;;;63.40;44.72;;;;;;;-144.47;100.00;61586.06;5029393;28;20823;-85
2022/01/01 06:41:07;;;;;;;64.88;45.55;;;;;;;-144.47;100.00;61586.06;5031538;28;20055;-86
2022/01/01 06:43:32;;;;;;;66.38;44.80;;;;;;;-144.47;100.00;61586.06;5031747;28;20025;-84
2022/01/01 06:45:58;;;;;;;69.50;47.00;;;;;;;-144.47;100.00;61586.06;5032203;28;20041;-86
2022/01/01 06:48:23;;;;;;;63.22;44.38;;;;;;;-144.47;100.00;61586.06;5031729;28;20104;-86
2022/01/01 06:50:49;;;;;;;63.85;44.35;;;;;;;-144.47;100.00;61586.06;5031906;28;20210;-86
2022/01/01 06:53:16;;;;;;;60.78;41.55;;;;;;;-144.47;100.00;61586.06;5018723;28;20041;-85
2022/01/01 06:55:41;;;;;;;58.55;42.25;;;;;;;-144.47;100.00;61586.06;5018874;28;20037;-85
2022/01/01 06:58:07;;;;;;;60.47;42.65;;;;;;;-144.47;100.00;61586.06;5037752;28;20045;-85
2022/01/01 07:00:32;;;;;;;57.95;41.67;;;;;;;-144.47;100.00;61586.06;5045714;28;20049;-86
2022/01/01 07:02:58;;;;;;;61.30;42.03;;;;;;;-144.47;100.00;61586.06;5051556;28;20037;-84
2022/01/01 07:05:23;;;;;;;57.50;41.58;;;;;;;-144.47;100.00;61586.06;5032861;28;20040;-85
2022/01/01 07:07:49;;;;;;;55.75;40.92;;;;;;;-144.47;100.00;61586.06;5029953;28;20037;-85
2022/01/01 07:10:14;;;;;;;60.33;41.83;;;;;;;-144.47;100.00;61586.06;5046982;28;20033;-84
2022/01/01 07:12:41;;;;;;;59.47;41.25;;;;;;;-144.47;100.00;61586.06;5021575;28;20046;-85
2022/01/01 07:15:08;;;;;;;60.35;41.42;;;;;;;-144.47;100.00;61586.06;5017846;28;20057;-85
2022/01/01 07:17:34;;;;;;;63.10;41.17;;;;;;;-144.47;100.00;61586.06;5017620;28;20072;-85
2022/01/01 07:19:59;;;;;;;59.72;43.03;;;;;;;-144.47;100.00;61586.06;5036443;28;20041;-85
2022/01/01 07:22:25;;;;;;;58.50;41.88;;;;;;;-144.47;100.00;61586.06;5038938;28;20072;-84
2022/01/01 07:24:50;;;;;;;60.03;42.33;;;;;;;-144.47;100.00;61586.06;5038188;28;20037;-85
2022/01/01 07:27:16;;;;;;;58.60;39.88;;;;;;;-144.47;100.00;61586.06;5038663;28;20042;-85
2022/01/01 07:29:42;;;;;;;61.92;40.33;;;;;;;-144.47;100.00;61586.06;5038065;28;20033;-85
2022/01/01 07:32:07;;;;;;;54.15;39.80;;;;;;;-144.47;100.00;61586.06;5038045;28;20029;-85
2022/01/01 07:34:33;;;;;;;55.67;40.15;;;;;;;-144.47;100.00;61586.06;5038668;28;20048;-85
2022/01/01 07:36:59;;;;;;;54.97;40.70;;;;;;;-144.47;100.00;61586.06;5039056;28;20489;-84
2022/01/01 07:39:25;;;;;;;51.40;37.88;;;;;;;-144.47;100.00;61586.06;5039559;28;20030;-83
2022/01/01 07:41:50;;;;;;;52.28;37.25;;;;;;;-144.47;100.00;61586.06;5038832;28;20033;-85
2022/01/01 07:44:15;;;;;;;54.72;39.53;;;;;;;-144.47;100.00;61586.06;5022389;28;20486;-86
2022/01/01 07:46:41;;;;;;;56.20;39.47;;;;;;;-144.47;100.00;61586.06;5039087;28;20030;-85
2022/01/01 07:49:06;;;;;;;51.10;38.38;;;;;;;-144.47;100.00;61586.06;5038719;28;20041;-83
2022/01/01 07:51:32;;;;;;;55.85;40.20;;;;;;;-144.47;100.00;61586.06;5039453;28;20029;-85
2022/01/01 07:53:58;;;;;;;52.53;38.00;;;;;;;-144.47;100.00;61586.06;5021267;28;20342;-86
2022/01/01 07:56:24;;;;;;;53.15;38.47;;;;;;;-144.47;100.00;61586.06;5040100;28;20025;-84
2022/01/01 07:58:49;;;;;;;50.03;37.65;;;;;;;-144.47;100.00;61586.06;5045390;28;20073;-85
2022/01/01 08:01:15;;;;;;;52.22;37.28;;;;;;;-144.47;100.00;61586.06;5049796;28;20029;-86
2022/01/01 08:03:40;;;;;;;51.95;38.40;;;;;;;-144.47;100.00;61586.06;5053998;28;20033;-85
2022/01/01 08:06:06;;;;;;;59.30;41.25;;;;;;;-144.47;100.00;61586.06;5051174;28;20053;-84
2022/01/01 08:08:31;;;;;;;54.65;38.15;;;;;;;-144.47;100.00;61586.06;5045647;28;20013;-84
2022/01/01 08:10:58;;;;;;;53.67;39.15;;;;;;;-144.47;100.00;61586.06;5053375;28;20093;-83
2022/01/01 08:13:25;;;;;;;48.28;37.20;;;;;;;-144.47;100.00;61586.06;5048099;28;20027;-83
2022/01/01 08:15:55;;;;;;;49.08;36.83;;;;;;;-144.47;100.00;61586.06;5053751;28;20025;-85
2022/01/01 08:18:21;;;;;;;51.03;37.88;;;;;;;-144.47;100.00;61586.06;5053892;28;20033;-86
2022/01/01 08:20:47;;;;;;;51.08;37.42;;;;;;;-144.47;100.00;61586.06;5047909;28;20030;-85
2022/01/01 08:23:13;;;;;;;49.40;36.97;;;;;;;-144.47;100.00;61586.06;5036482;28;20536;-85
2022/01/01 08:25:39;;;;;;;47.28;34.58;;;;;;;-144.47;100.00;61586.06;5048749;28;20029;-85
2022/01/01 08:28:07;;;;;;;49.72;36.97;;;;;;;-144.47;100.00;61586.06;5050202;28;20040;-85
2022/01/01 08:30:34;;;;;;;51.13;37.38;;;;;;;-144.47;100.00;61586.06;5044571;28;20089;-84
2022/01/01 08:33:03;;;;;;;47.75;35.38;;;;;;;-144.47;100.00;61586.06;5052611;28;20038;-85
2022/01/01 08:35:32;;;;;;;44.55;33.72;;;;;;;-144.47;100.00;61586.06;5028479;28;20025;-83
2022/01/01 08:38:00;;;;;;;47.53;35.20;;;;;;;-144.47;100.00;61586.06;5048984;28;20025;-85
2022/01/01 08:40:27;;;;;;;46.78;34.80;;;;;;;-144.47;100.00;61586.06;5046769;28;20030;-86
2022/01/01 08:42:52;;;;;;;44.75;35.20;;;;;;;-144.47;100.00;61586.06;5050374;28;20044;-85
2022/01/01 08:45:18;;;;;;;44.42;33.00;;;;;;;-144.47;100.00;61586.06;5045199;28;20064;-85
2022/01/01 08:47:45;;;;;;;39.28;32.30;;;;;;;-144.47;100.00;61586.06;5039050;28;20021;-86
2022/01/01 08:50:11;;;;;;;40.72;32.58;;;;;;;-144.47;100.00;61586.06;5052884;28;20034;-86
2022/01/01 08:52:36;;;;;;;42.60;34.03;;;;;;;-144.47;100.00;61586.06;5046781;28;20036;-84
2022/01/01 08:55:03;;;;;;;45.05;34.58;;;;;;;-144.47;100.00;61586.06;5055111;28;20091;-84
2022/01/01 08:57:32;;;;;;;47.22;36.15;;;;;;;-144.47;100.00;61586.06;5054505;28;20033;-85
2022/01/01 09:00:05;;;;;;;44.47;34.45;;;;;;;-144.47;100.00;61586.06;5037910;28;20083;-85
2022/01/01 09:02:30;;;;;;;46.55;35.28;;;;;;;-144.47;100.00;61586.06;5055334;28;20038;-85
2022/01/01 09:04:55;;;;;;;43.20;34.50;;;;;;;-144.47;100.00;61586.06;5050659;28;20052;-84
2022/01/01 09:07:28;;;;;;;44.63;34.15;;;;;;;-144.47;100.00;61586.06;5040519;28;20037;-85
2022/01/01 09:09:56;;;;;;;47.67;35.45;;;;;;;-144.47;100.00;61586.06;5036869;28;20045;-85
2022/01/01 09:12:22;;;;;;;48.65;36.28;;;;;;;-144.47;100.00;61586.06;5006516;28;20058;-85
2022/01/01 09:14:48;;;;;;;46.95;35.83;;;;;;;-144.47;100.00;61586.06;5014984;28;20442;-85
2022/01/01 09:17:13;;;;;;;48.00;36.63;;;;;;;-144.47;100.00;61586.06;5015054;28;20037;-86
2022/01/01 09:19:42;;;;;;;46.55;36.25;;;;;;;-144.47;100.00;61586.06;5014584;28;20712;-84
2022/01/01 09:22:07;;;;;;;51.03;37.65;;;;;;;-144.47;100.00;61586.06;5014654;28;20100;-85
2022/01/01 09:24:35;;;;;;;49.50;36.92;;;;;;;-144.47;100.00;61586.06;5016011;28;20026;-86
2022/01/01 09:27:01;;;;;;;45.67;36.05;;;;;;;-144.47;100.00;61586.06;4996078;28;20036;-85
2022/01/01 09:29:26;;;;;;;50.88;38.03;;;;;;;-144.47;100.00;61586.06;4994515;28;20423;-85
2022/01/01 09:31:52;;;;;;;46.42;37.35;;;;;;;-144.47;100.00;61586.06;5012016;28;20030;-84
2022/01/01 09:34:17;;;;;;;50.80;37.88;;;;;;;-144.47;100.00;61586.06;4994448;28;20086;-85
2022/01/01 09:36:43;;;;;;;45.85;36.50;;;;;;;-144.47;100.00;61586.06;4994355;28;20117;-86
2022/01/01 09:39:09;;;;;;;45.78;36.20;;;;;;;-144.47;100.00;61586.06;4994118;28;20030;-86
2022/01/01 09:41:40;;;;;;;44.50;35.80;;;;;;;-144.47;100.00;61586.06;5012143;28;20072;-85
2022/01/01 09:44:12;;;;;;;47.17;36.90;;;;;;;-144.47;100.00;61586.06;5006686;28;20064;-85
2022/01/01 09:46:44;;;;;;;46.47;37.45;;;;;;;-144.47;100.00;61586.06;5012026;28;20113;-86
2022/01/01 09:49:11;;;;;;;47.10;37.38;;;;;;;-144.47;100.00;61586.06;5014982;28;20509;-86
2022/01/01 09:51:37;;;;;;;53.97;38.38;;;;;;;-144.47;100.00;61586.06;5012928;28;20061;-83
2022/01/01 09:54:03;;;;;;;49.15;37.75;;;;;;;-144.47;100.00;61586.06;4994733;28;20072;-83
2022/01/01 09:56:29;;;;;;;52.50;39.22;;;;;;;-144.47;100.00;61586.06;5012563;28;20030;-85
2022/01/01 09:58:55;;;;;;;50.47;37.90;;;;;;;-144.47;100.00;61586.06;4992410;28;20071;-84
2022/01/01 10:01:20;;;;;;;52.17;38.20;;;;;;;-144.47;100.00;61586.06;4981284;28;20038;-84
2022/01/01 10:03:49;;;;;;;50.90;38.25;;;;;;;-144.47;100.00;61586.06;5001527;28;20064;-84
2022/01/01 10:06:17;;;;;;;51.60;37.85;;;;;;;-144.47;100.00;61586.06;5003846;28;20033;-85
2022/01/01 10:08:57;;;;;;;49.47;37.08;;;;;;;-144.47;100.00;61586.06;5001372;28;20110;-85
2022/01/01 10:11:24;;;;;;;50.78;38.08;;;;;;;-144.47;100.00;61586.06;4994085;28;20125;-85
2022/01/01 10:13:50;;;;;;;56.85;40.58;;;;;;;-144.47;100.00;61586.06;5013259;28;20116;-85
2022/01/01 10:16:16;;;;;;;50.97;40.10;;;;;;;-144.47;100.00;61586.06;5012358;28;20038;-85
2022/01/01 10:18:44;;;;;;;54.83;42.05;;;;;;;-144.47;100.00;61586.06;5010774;28;20021;-83
2022/01/01 10:21:18;;;;;;;55.88;40.83;;;;;;;-144.47;100.00;61586.06;5013154;28;20105;-83
2022/01/01 10:23:49;;;;;;;53.03;40.40;;;;;;;-144.47;100.00;61586.06;5011011;28;20430;-85
2022/01/01 10:29:24;;;;;;;54.08;38.75;;;;;;;-144.47;100.00;61586.06;5015981;28;20046;-84
2022/01/01 10:32:13;;;;;;;53.72;39.65;;;;;;;-144.47;100.00;61586.06;5014282;28;20026;-85
2022/01/01 10:34:47;;;;;;;49.78;37.45;;;;;;;-144.47;100.00;61586.06;5014117;28;20037;-84
2022/01/01 10:37:15;;;;;;;54.08;40.72;;;;;;;-144.47;100.00;61586.06;5013661;28;20040;-84
2022/01/01 10:39:54;;;;;;;51.13;39.72;;;;;;;-144.47;100.00;61586.06;5016406;28;20041;-85
2022/01/01 10:42:19;;;;;;;53.72;40.08;;;;;;;-144.47;100.00;61586.06;5015108;28;20042;-84
2022/01/01 10:44:52;;;;;;;55.20;41.08;;;;;;;-144.47;100.00;61586.06;5013851;28;20038;-84
2022/01/01 10:47:25;;;;;;;52.80;40.10;;;;;;;-144.47;100.00;61586.06;5015884;28;20044;-85
2022/01/01 10:50:13;;;;;;;57.55;41.22;;;;;;;-144.47;100.00;61586.06;5015086;28;20471;-84
2022/01/01 10:52:36;;;;;;;55.65;42.83;;;;;;;-144.47;100.00;61586.06;5015766;28;20030;-84
2022/01/01 10:55:06;;;;;;;59.95;42.42;;;;;;;-144.47;100.00;61586.06;5015402;28;20089;-85